sensor_id;sensor_type;location;lat;lon;timestamp;P1;durP1;ratioP1;P2;durP2;ratioP2
54683;SDS011;40582;53.100;6.686;2022-12-28T00:01:05;12.73;;;5.53;;
54683;SDS011;40582;53.100;6.686;2022-12-28T00:03:32;18.85;;;6.03;;
54683;SDS011;40582;53.100;6.686;2022-12-28T00:05:58;15.68;;;5.90;;
54683;SDS011;40582;53.100;6.686;2022-12-28T00:08:23;21.85;;;6.00;;
54683;SDS011;40582;53.100;6.686;2022-12-28T00:10:49;18.15;;;6.13;;
54683;SDS011;40582;53.100;6.686;2022-12-28T00:13:15;14.02;;;5.88;;
54683;SDS011;40582;53.100;6.686;2022-12-28T00:15:40;12.35;;;5.95;;
54683;SDS011;40582;53.100;6.686;2022-12-28T00:18:06;15.68;;;6.15;;
54683;SDS011;40582;53.100;6.686;2022-12-28T00:20:31;15.05;;;5.15;;
54683;SDS011;40582;53.100;6.686;2022-12-28T00:22:57;12.48;;;6.30;;
54683;SDS011;40582;53.100;6.686;2022-12-28T00:25:23;13.63;;;5.82;;
54683;SDS011;40582;53.100;6.686;2022-12-28T00:27:48;16.75;;;6.65;;
54683;SDS011;40582;53.100;6.686;2022-12-28T00:30:14;19.80;;;6.10;;
54683;SDS011;40582;53.100;6.686;2022-12-28T00:32:40;18.55;;;6.40;;
54683;SDS011;40582;53.100;6.686;2022-12-28T00:35:05;20.58;;;6.63;;
54683;SDS011;40582;53.100;6.686;2022-12-28T00:37:31;19.13;;;6.57;;
54683;SDS011;40582;53.100;6.686;2022-12-28T00:39:57;14.27;;;6.30;;
54683;SDS011;40582;53.100;6.686;2022-12-28T00:42:23;18.80;;;6.50;;
54683;SDS011;40582;53.100;6.686;2022-12-28T00:44:50;13.73;;;6.55;;
54683;SDS011;40582;53.100;6.686;2022-12-28T00:47:15;20.45;;;6.57;;
54683;SDS011;40582;53.100;6.686;2022-12-28T00:49:41;14.30;;;6.38;;
54683;SDS011;40582;53.100;6.686;2022-12-28T00:52:07;17.42;;;6.38;;
54683;SDS011;40582;53.100;6.686;2022-12-28T00:54:32;15.85;;;6.50;;
54683;SDS011;40582;53.100;6.686;2022-12-28T00:56:58;16.45;;;7.00;;
54683;SDS011;40582;53.100;6.686;2022-12-28T00:59:24;16.92;;;6.68;;
54683;SDS011;40582;53.100;6.686;2022-12-28T01:01:49;19.15;;;7.00;;
54683;SDS011;40582;53.100;6.686;2022-12-28T01:04:15;13.88;;;6.03;;
54683;SDS011;40582;53.100;6.686;2022-12-28T01:06:41;15.50;;;6.93;;
54683;SDS011;40582;53.100;6.686;2022-12-28T01:09:06;15.38;;;7.03;;
54683;SDS011;40582;53.100;6.686;2022-12-28T01:11:32;13.55;;;6.57;;
54683;SDS011;40582;53.100;6.686;2022-12-28T01:13:59;15.77;;;7.35;;
54683;SDS011;40582;53.100;6.686;2022-12-28T01:16:26;15.15;;;6.85;;
54683;SDS011;40582;53.100;6.686;2022-12-28T01:18:57;17.92;;;6.95;;
54683;SDS011;40582;53.100;6.686;2022-12-28T01:21:26;16.15;;;7.07;;
54683;SDS011;40582;53.100;6.686;2022-12-28T01:23:53;14.02;;;6.60;;
54683;SDS011;40582;53.100;6.686;2022-12-28T01:26:20;13.00;;;6.32;;
54683;SDS011;40582;53.100;6.686;2022-12-28T01:28:46;20.52;;;6.65;;
54683;SDS011;40582;53.100;6.686;2022-12-28T01:31:13;14.05;;;5.88;;
54683;SDS011;40582;53.100;6.686;2022-12-28T01:33:40;13.90;;;6.30;;
54683;SDS011;40582;53.100;6.686;2022-12-28T01:36:16;19.55;;;6.53;;
54683;SDS011;40582;53.100;6.686;2022-12-28T01:38:43;13.85;;;6.55;;
54683;SDS011;40582;53.100;6.686;2022-12-28T01:41:11;23.92;;;6.75;;
54683;SDS011;40582;53.100;6.686;2022-12-28T01:43:42;17.13;;;6.40;;
54683;SDS011;40582;53.100;6.686;2022-12-28T01:46:29;15.90;;;6.32;;
54683;SDS011;40582;53.100;6.686;2022-12-28T01:51:33;17.55;;;6.30;;
54683;SDS011;40582;53.100;6.686;2022-12-28T01:54:17;16.27;;;6.93;;
54683;SDS011;40582;53.100;6.686;2022-12-28T01:56:45;13.25;;;7.28;;
54683;SDS011;40582;53.100;6.686;2022-12-28T01:59:12;11.75;;;6.80;;
54683;SDS011;40582;53.100;6.686;2022-12-28T02:01:38;18.23;;;6.72;;
54683;SDS011;40582;53.100;6.686;2022-12-28T02:04:04;16.88;;;7.03;;
54683;SDS011;40582;53.100;6.686;2022-12-28T02:06:30;16.48;;;7.10;;
54683;SDS011;40582;53.100;6.686;2022-12-28T02:08:57;16.17;;;6.85;;
54683;SDS011;40582;53.100;6.686;2022-12-28T02:11:43;17.65;;;7.15;;
54683;SDS011;40582;53.100;6.686;2022-12-28T02:14:09;20.33;;;8.10;;
54683;SDS011;40582;53.100;6.686;2022-12-28T02:16:37;20.30;;;8.05;;
54683;SDS011;40582;53.100;6.686;2022-12-28T02:19:04;13.95;;;7.47;;
54683;SDS011;40582;53.100;6.686;2022-12-28T02:21:42;15.00;;;7.72;;
54683;SDS011;40582;53.100;6.686;2022-12-28T02:30:11;13.95;;;8.27;;
54683;SDS011;40582;53.100;6.686;2022-12-28T02:35:23;16.52;;;8.20;;
54683;SDS011;40582;53.100;6.686;2022-12-28T02:38:27;20.08;;;7.97;;
54683;SDS011;40582;53.100;6.686;2022-12-28T02:41:23;14.98;;;8.63;;
54683;SDS011;40582;53.100;6.686;2022-12-28T02:43:50;15.82;;;9.02;;
54683;SDS011;40582;53.100;6.686;2022-12-28T02:49:15;18.70;;;9.80;;
54683;SDS011;40582;53.100;6.686;2022-12-28T02:52:20;15.20;;;8.80;;
54683;SDS011;40582;53.100;6.686;2022-12-28T03:06:41;12.30;;;8.02;;
54683;SDS011;40582;53.100;6.686;2022-12-28T03:12:27;14.77;;;8.05;;
54683;SDS011;40582;53.100;6.686;2022-12-28T03:15:03;16.33;;;8.85;;
54683;SDS011;40582;53.100;6.686;2022-12-28T03:17:29;14.80;;;10.15;;
54683;SDS011;40582;53.100;6.686;2022-12-28T03:20:20;11.98;;;8.55;;
54683;SDS011;40582;53.100;6.686;2022-12-28T03:23:10;13.15;;;9.38;;
54683;SDS011;40582;53.100;6.686;2022-12-28T03:25:56;18.38;;;9.48;;
54683;SDS011;40582;53.100;6.686;2022-12-28T03:28:44;15.95;;;9.93;;
54683;SDS011;40582;53.100;6.686;2022-12-28T03:31:29;19.30;;;10.70;;
54683;SDS011;40582;53.100;6.686;2022-12-28T03:33:56;15.00;;;10.40;;
54683;SDS011;40582;53.100;6.686;2022-12-28T03:36:48;13.68;;;9.80;;
54683;SDS011;40582;53.100;6.686;2022-12-28T03:39:41;17.48;;;9.90;;
54683;SDS011;40582;53.100;6.686;2022-12-28T03:42:25;17.90;;;10.60;;
54683;SDS011;40582;53.100;6.686;2022-12-28T03:45:20;16.80;;;10.40;;
54683;SDS011;40582;53.100;6.686;2022-12-28T03:47:51;15.82;;;11.27;;
54683;SDS011;40582;53.100;6.686;2022-12-28T03:50:18;17.30;;;10.27;;
54683;SDS011;40582;53.100;6.686;2022-12-28T03:52:45;20.92;;;11.18;;
54683;SDS011;40582;53.100;6.686;2022-12-28T03:55:14;21.35;;;11.57;;
54683;SDS011;40582;53.100;6.686;2022-12-28T03:57:40;15.40;;;10.82;;
54683;SDS011;40582;53.100;6.686;2022-12-28T04:00:07;25.52;;;11.02;;
54683;SDS011;40582;53.100;6.686;2022-12-28T04:02:34;19.27;;;10.60;;
54683;SDS011;40582;53.100;6.686;2022-12-28T04:05:01;19.70;;;10.88;;
54683;SDS011;40582;53.100;6.686;2022-12-28T04:07:27;18.35;;;10.95;;
54683;SDS011;40582;53.100;6.686;2022-12-28T04:09:53;16.48;;;10.13;;
54683;SDS011;40582;53.100;6.686;2022-12-28T04:12:19;16.90;;;10.23;;
54683;SDS011;40582;53.100;6.686;2022-12-28T04:14:45;16.67;;;9.55;;
54683;SDS011;40582;53.100;6.686;2022-12-28T04:17:11;15.38;;;10.20;;
54683;SDS011;40582;53.100;6.686;2022-12-28T04:19:36;16.15;;;10.07;;
54683;SDS011;40582;53.100;6.686;2022-12-28T04:22:02;12.93;;;10.05;;
54683;SDS011;40582;53.100;6.686;2022-12-28T04:24:28;15.95;;;9.93;;
54683;SDS011;40582;53.100;6.686;2022-12-28T04:26:54;12.05;;;9.10;;
54683;SDS011;40582;53.100;6.686;2022-12-28T04:29:20;18.23;;;10.52;;
54683;SDS011;40582;53.100;6.686;2022-12-28T04:31:45;12.30;;;9.02;;
54683;SDS011;40582;53.100;6.686;2022-12-28T04:34:11;16.42;;;9.02;;
54683;SDS011;40582;53.100;6.686;2022-12-28T04:36:37;13.57;;;9.10;;
54683;SDS011;40582;53.100;6.686;2022-12-28T04:39:03;13.68;;;9.35;;
54683;SDS011;40582;53.100;6.686;2022-12-28T04:41:29;12.73;;;8.68;;
54683;SDS011;40582;53.100;6.686;2022-12-28T04:43:55;15.20;;;9.65;;
54683;SDS011;40582;53.100;6.686;2022-12-28T04:46:21;14.55;;;9.77;;
54683;SDS011;40582;53.100;6.686;2022-12-28T04:48:49;13.18;;;9.45;;
54683;SDS011;40582;53.100;6.686;2022-12-28T04:51:16;15.27;;;9.07;;
54683;SDS011;40582;53.100;6.686;2022-12-28T04:53:47;14.55;;;9.05;;
54683;SDS011;40582;53.100;6.686;2022-12-28T04:56:13;12.43;;;9.40;;
54683;SDS011;40582;53.100;6.686;2022-12-28T04:58:40;11.88;;;8.93;;
54683;SDS011;40582;53.100;6.686;2022-12-28T05:01:08;16.48;;;9.48;;
54683;SDS011;40582;53.100;6.686;2022-12-28T05:03:35;12.98;;;9.73;;
54683;SDS011;40582;53.100;6.686;2022-12-28T05:06:03;13.70;;;9.77;;
54683;SDS011;40582;53.100;6.686;2022-12-28T05:08:31;14.00;;;10.43;;
54683;SDS011;40582;53.100;6.686;2022-12-28T05:10:58;12.27;;;9.68;;
54683;SDS011;40582;53.100;6.686;2022-12-28T05:13:28;16.55;;;11.73;;
54683;SDS011;40582;53.100;6.686;2022-12-28T05:15:54;19.70;;;11.80;;
54683;SDS011;40582;53.100;6.686;2022-12-28T05:18:24;14.00;;;10.60;;
54683;SDS011;40582;53.100;6.686;2022-12-28T05:20:49;16.48;;;11.32;;
54683;SDS011;40582;53.100;6.686;2022-12-28T05:23:22;19.38;;;12.68;;
54683;SDS011;40582;53.100;6.686;2022-12-28T05:25:51;15.23;;;11.75;;
54683;SDS011;40582;53.100;6.686;2022-12-28T05:28:17;16.73;;;12.10;;
54683;SDS011;40582;53.100;6.686;2022-12-28T05:30:43;19.08;;;12.02;;
54683;SDS011;40582;53.100;6.686;2022-12-28T05:33:08;17.23;;;13.30;;
54683;SDS011;40582;53.100;6.686;2022-12-28T05:35:34;20.15;;;14.35;;
54683;SDS011;40582;53.100;6.686;2022-12-28T05:38:00;17.42;;;13.40;;
54683;SDS011;40582;53.100;6.686;2022-12-28T05:40:25;20.83;;;14.40;;
54683;SDS011;40582;53.100;6.686;2022-12-28T05:42:51;17.13;;;14.27;;
54683;SDS011;40582;53.100;6.686;2022-12-28T05:45:17;19.67;;;15.07;;
54683;SDS011;40582;53.100;6.686;2022-12-28T05:47:42;23.35;;;16.23;;
54683;SDS011;40582;53.100;6.686;2022-12-28T05:50:08;19.60;;;14.88;;
54683;SDS011;40582;53.100;6.686;2022-12-28T05:52:34;22.38;;;17.02;;
54683;SDS011;40582;53.100;6.686;2022-12-28T05:55:00;20.80;;;15.38;;
54683;SDS011;40582;53.100;6.686;2022-12-28T05:57:26;22.98;;;16.67;;
54683;SDS011;40582;53.100;6.686;2022-12-28T05:59:52;24.75;;;15.98;;
54683;SDS011;40582;53.100;6.686;2022-12-28T06:02:18;29.23;;;18.70;;
54683;SDS011;40582;53.100;6.686;2022-12-28T06:04:43;23.25;;;17.42;;
54683;SDS011;40582;53.100;6.686;2022-12-28T06:07:09;25.58;;;18.02;;
54683;SDS011;40582;53.100;6.686;2022-12-28T06:09:35;22.55;;;17.88;;
54683;SDS011;40582;53.100;6.686;2022-12-28T06:12:00;31.40;;;20.65;;
54683;SDS011;40582;53.100;6.686;2022-12-28T06:14:28;30.67;;;20.05;;
54683;SDS011;40582;53.100;6.686;2022-12-28T06:16:54;33.25;;;20.73;;
54683;SDS011;40582;53.100;6.686;2022-12-28T06:19:20;25.45;;;18.48;;
54683;SDS011;40582;53.100;6.686;2022-12-28T06:21:46;32.30;;;20.50;;
54683;SDS011;40582;53.100;6.686;2022-12-28T06:24:11;32.00;;;20.17;;
54683;SDS011;40582;53.100;6.686;2022-12-28T06:26:38;29.98;;;18.92;;
54683;SDS011;40582;53.100;6.686;2022-12-28T06:29:05;25.70;;;18.27;;
54683;SDS011;40582;53.100;6.686;2022-12-28T06:31:32;21.02;;;16.65;;
54683;SDS011;40582;53.100;6.686;2022-12-28T06:34:02;19.25;;;16.20;;
54683;SDS011;40582;53.100;6.686;2022-12-28T06:36:31;23.52;;;16.63;;
54683;SDS011;40582;53.100;6.686;2022-12-28T06:38:59;20.02;;;15.93;;
54683;SDS011;40582;53.100;6.686;2022-12-28T06:41:26;20.17;;;15.25;;
54683;SDS011;40582;53.100;6.686;2022-12-28T06:43:53;16.17;;;13.23;;
54683;SDS011;40582;53.100;6.686;2022-12-28T06:46:20;25.92;;;16.13;;
54683;SDS011;40582;53.100;6.686;2022-12-28T06:48:47;14.32;;;12.50;;
54683;SDS011;40582;53.100;6.686;2022-12-28T06:51:14;18.83;;;14.75;;
54683;SDS011;40582;53.100;6.686;2022-12-28T06:53:40;24.40;;;15.38;;
54683;SDS011;40582;53.100;6.686;2022-12-28T06:56:07;22.05;;;14.07;;
54683;SDS011;40582;53.100;6.686;2022-12-28T06:58:41;23.33;;;16.65;;
54683;SDS011;40582;53.100;6.686;2022-12-28T07:01:07;23.40;;;15.98;;
54683;SDS011;40582;53.100;6.686;2022-12-28T07:03:38;25.38;;;16.70;;
54683;SDS011;40582;53.100;6.686;2022-12-28T07:06:04;20.70;;;16.10;;
54683;SDS011;40582;53.100;6.686;2022-12-28T07:08:30;19.88;;;15.52;;
54683;SDS011;40582;53.100;6.686;2022-12-28T07:11:10;28.95;;;16.27;;
54683;SDS011;40582;53.100;6.686;2022-12-28T07:13:37;20.40;;;15.40;;
54683;SDS011;40582;53.100;6.686;2022-12-28T07:16:04;21.10;;;15.10;;
54683;SDS011;40582;53.100;6.686;2022-12-28T07:18:32;24.55;;;15.57;;
54683;SDS011;40582;53.100;6.686;2022-12-28T07:20:59;18.23;;;14.25;;
54683;SDS011;40582;53.100;6.686;2022-12-28T07:23:26;20.90;;;15.38;;
54683;SDS011;40582;53.100;6.686;2022-12-28T07:25:54;22.08;;;14.73;;
54683;SDS011;40582;53.100;6.686;2022-12-28T07:28:21;21.98;;;15.50;;
54683;SDS011;40582;53.100;6.686;2022-12-28T07:30:47;22.20;;;15.48;;
54683;SDS011;40582;53.100;6.686;2022-12-28T07:33:12;23.65;;;16.85;;
54683;SDS011;40582;53.100;6.686;2022-12-28T07:35:38;23.85;;;16.13;;
54683;SDS011;40582;53.100;6.686;2022-12-28T07:38:04;23.45;;;16.42;;
54683;SDS011;40582;53.100;6.686;2022-12-28T07:40:29;30.25;;;19.92;;
54683;SDS011;40582;53.100;6.686;2022-12-28T07:42:55;34.03;;;18.50;;
54683;SDS011;40582;53.100;6.686;2022-12-28T07:45:24;24.13;;;18.50;;
54683;SDS011;40582;53.100;6.686;2022-12-28T07:47:49;25.52;;;18.75;;
54683;SDS011;40582;53.100;6.686;2022-12-28T07:50:15;27.55;;;18.27;;
54683;SDS011;40582;53.100;6.686;2022-12-28T07:52:41;44.35;;;21.35;;
54683;SDS011;40582;53.100;6.686;2022-12-28T07:55:06;24.27;;;17.52;;
54683;SDS011;40582;53.100;6.686;2022-12-28T07:57:32;32.45;;;20.02;;
54683;SDS011;40582;53.100;6.686;2022-12-28T07:59:58;34.38;;;20.25;;
54683;SDS011;40582;53.100;6.686;2022-12-28T08:02:24;27.60;;;19.95;;
54683;SDS011;40582;53.100;6.686;2022-12-28T08:04:50;36.03;;;20.92;;
54683;SDS011;40582;53.100;6.686;2022-12-28T08:07:16;30.25;;;19.92;;
54683;SDS011;40582;53.100;6.686;2022-12-28T08:09:41;29.35;;;19.23;;
54683;SDS011;40582;53.100;6.686;2022-12-28T08:12:07;27.35;;;18.92;;
54683;SDS011;40582;53.100;6.686;2022-12-28T08:14:33;23.00;;;17.90;;
54683;SDS011;40582;53.100;6.686;2022-12-28T08:16:58;30.27;;;19.10;;
54683;SDS011;40582;53.100;6.686;2022-12-28T08:19:24;25.70;;;17.55;;
54683;SDS011;40582;53.100;6.686;2022-12-28T08:21:50;25.50;;;18.25;;
54683;SDS011;40582;53.100;6.686;2022-12-28T08:24:16;24.02;;;17.55;;
54683;SDS011;40582;53.100;6.686;2022-12-28T08:26:43;22.73;;;17.00;;
54683;SDS011;40582;53.100;6.686;2022-12-28T08:29:11;22.75;;;17.00;;
54683;SDS011;40582;53.100;6.686;2022-12-28T08:31:40;31.13;;;18.25;;
54683;SDS011;40582;53.100;6.686;2022-12-28T08:34:09;25.67;;;18.33;;
54683;SDS011;40582;53.100;6.686;2022-12-28T08:36:40;22.90;;;17.13;;
54683;SDS011;40582;53.100;6.686;2022-12-28T08:39:06;28.60;;;19.17;;
54683;SDS011;40582;53.100;6.686;2022-12-28T08:41:31;27.60;;;18.70;;
54683;SDS011;40582;53.100;6.686;2022-12-28T08:43:57;31.95;;;19.65;;
54683;SDS011;40582;53.100;6.686;2022-12-28T08:46:24;26.90;;;18.15;;
54683;SDS011;40582;53.100;6.686;2022-12-28T08:48:52;22.55;;;16.67;;
54683;SDS011;40582;53.100;6.686;2022-12-28T08:51:21;35.15;;;19.80;;
54683;SDS011;40582;53.100;6.686;2022-12-28T08:53:49;23.92;;;15.10;;
54683;SDS011;40582;53.100;6.686;2022-12-28T08:58:51;29.30;;;15.65;;
54683;SDS011;40582;53.100;6.686;2022-12-28T09:01:23;18.05;;;13.18;;
54683;SDS011;40582;53.100;6.686;2022-12-28T09:03:55;16.73;;;11.85;;
54683;SDS011;40582;53.100;6.686;2022-12-28T09:06:23;18.55;;;12.02;;
54683;SDS011;40582;53.100;6.686;2022-12-28T09:08:52;14.05;;;10.73;;
54683;SDS011;40582;53.100;6.686;2022-12-28T09:11:20;12.48;;;10.50;;
54683;SDS011;40582;53.100;6.686;2022-12-28T09:13:46;13.55;;;10.15;;
54683;SDS011;40582;53.100;6.686;2022-12-28T09:16:13;14.85;;;9.75;;
54683;SDS011;40582;53.100;6.686;2022-12-28T09:18:40;13.98;;;9.98;;
54683;SDS011;40582;53.100;6.686;2022-12-28T09:21:11;15.18;;;9.85;;
54683;SDS011;40582;53.100;6.686;2022-12-28T09:23:42;11.13;;;8.43;;
54683;SDS011;40582;53.100;6.686;2022-12-28T09:26:19;12.88;;;9.00;;
54683;SDS011;40582;53.100;6.686;2022-12-28T09:28:47;10.70;;;8.45;;
54683;SDS011;40582;53.100;6.686;2022-12-28T09:31:14;13.95;;;8.90;;
54683;SDS011;40582;53.100;6.686;2022-12-28T09:33:41;11.40;;;8.73;;
54683;SDS011;40582;53.100;6.686;2022-12-28T09:36:25;15.20;;;9.48;;
54683;SDS011;40582;53.100;6.686;2022-12-28T09:38:51;15.98;;;10.65;;
54683;SDS011;40582;53.100;6.686;2022-12-28T09:44:06;20.55;;;9.75;;
54683;SDS011;40582;53.100;6.686;2022-12-28T09:46:33;12.15;;;10.38;;
54683;SDS011;40582;53.100;6.686;2022-12-28T09:49:02;12.90;;;9.20;;
54683;SDS011;40582;53.100;6.686;2022-12-28T09:51:31;11.93;;;9.90;;
54683;SDS011;40582;53.100;6.686;2022-12-28T09:54:03;12.43;;;9.55;;
54683;SDS011;40582;53.100;6.686;2022-12-28T09:56:32;13.35;;;10.02;;
54683;SDS011;40582;53.100;6.686;2022-12-28T09:59:01;11.82;;;9.13;;
54683;SDS011;40582;53.100;6.686;2022-12-28T10:01:29;11.95;;;8.13;;
54683;SDS011;40582;53.100;6.686;2022-12-28T10:04:00;8.85;;;7.80;;
54683;SDS011;40582;53.100;6.686;2022-12-28T10:06:27;11.70;;;7.47;;
54683;SDS011;40582;53.100;6.686;2022-12-28T10:09:01;8.80;;;7.13;;
54683;SDS011;40582;53.100;6.686;2022-12-28T10:11:30;8.82;;;7.57;;
54683;SDS011;40582;53.100;6.686;2022-12-28T10:14:17;12.95;;;8.07;;
54683;SDS011;40582;53.100;6.686;2022-12-28T10:16:44;12.70;;;8.20;;
54683;SDS011;40582;53.100;6.686;2022-12-28T10:19:13;14.95;;;9.70;;
54683;SDS011;40582;53.100;6.686;2022-12-28T10:21:42;16.55;;;9.48;;
54683;SDS011;40582;53.100;6.686;2022-12-28T10:24:10;16.92;;;10.30;;
54683;SDS011;40582;53.100;6.686;2022-12-28T10:26:37;16.20;;;10.13;;
54683;SDS011;40582;53.100;6.686;2022-12-28T10:29:04;19.60;;;11.00;;
54683;SDS011;40582;53.100;6.686;2022-12-28T10:31:38;14.18;;;9.93;;
54683;SDS011;40582;53.100;6.686;2022-12-28T10:34:15;17.90;;;10.05;;
54683;SDS011;40582;53.100;6.686;2022-12-28T10:36:45;16.77;;;10.68;;
54683;SDS011;40582;53.100;6.686;2022-12-28T10:39:24;14.27;;;10.15;;
54683;SDS011;40582;53.100;6.686;2022-12-28T10:41:55;12.70;;;8.57;;
54683;SDS011;40582;53.100;6.686;2022-12-28T10:44:31;19.15;;;9.15;;
54683;SDS011;40582;53.100;6.686;2022-12-28T10:46:59;12.10;;;8.50;;
54683;SDS011;40582;53.100;6.686;2022-12-28T10:49:30;11.88;;;7.85;;
54683;SDS011;40582;53.100;6.686;2022-12-28T10:54:40;8.95;;;7.10;;
54683;SDS011;40582;53.100;6.686;2022-12-28T11:02:40;7.35;;;5.75;;
54683;SDS011;40582;53.100;6.686;2022-12-28T11:05:16;13.55;;;6.55;;
54683;SDS011;40582;53.100;6.686;2022-12-28T11:07:47;8.00;;;6.53;;
54683;SDS011;40582;53.100;6.686;2022-12-28T11:10:14;7.38;;;6.20;;
54683;SDS011;40582;53.100;6.686;2022-12-28T11:12:55;8.10;;;6.55;;
54683;SDS011;40582;53.100;6.686;2022-12-28T11:15:23;7.07;;;6.28;;
54683;SDS011;40582;53.100;6.686;2022-12-28T11:17:58;9.07;;;5.78;;
54683;SDS011;40582;53.100;6.686;2022-12-28T11:20:42;10.38;;;6.13;;
54683;SDS011;40582;53.100;6.686;2022-12-28T11:23:15;6.13;;;5.53;;
54683;SDS011;40582;53.100;6.686;2022-12-28T11:25:49;6.68;;;5.97;;
54683;SDS011;40582;53.100;6.686;2022-12-28T11:28:17;8.05;;;6.75;;
54683;SDS011;40582;53.100;6.686;2022-12-28T11:30:45;6.32;;;5.68;;
54683;SDS011;40582;53.100;6.686;2022-12-28T11:36:15;7.63;;;5.78;;
54683;SDS011;40582;53.100;6.686;2022-12-28T11:38:47;6.60;;;6.00;;
54683;SDS011;40582;53.100;6.686;2022-12-28T11:43:50;7.60;;;5.97;;
54683;SDS011;40582;53.100;6.686;2022-12-28T11:54:02;9.55;;;5.10;;
54683;SDS011;40582;53.100;6.686;2022-12-28T11:59:26;6.88;;;5.50;;
54683;SDS011;40582;53.100;6.686;2022-12-28T12:04:35;5.28;;;4.78;;
54683;SDS011;40582;53.100;6.686;2022-12-28T12:09:38;5.40;;;3.90;;
54683;SDS011;40582;53.100;6.686;2022-12-28T12:14:46;6.10;;;4.88;;
54683;SDS011;40582;53.100;6.686;2022-12-28T12:17:13;4.93;;;4.43;;
54683;SDS011;40582;53.100;6.686;2022-12-28T12:22:33;4.30;;;3.92;;
54683;SDS011;40582;53.100;6.686;2022-12-28T12:27:56;4.63;;;4.10;;
54683;SDS011;40582;53.100;6.686;2022-12-28T12:30:25;5.05;;;4.55;;
54683;SDS011;40582;53.100;6.686;2022-12-28T12:32:54;4.70;;;4.30;;
54683;SDS011;40582;53.100;6.686;2022-12-28T12:35:33;4.53;;;4.13;;
54683;SDS011;40582;53.100;6.686;2022-12-28T12:38:37;5.00;;;4.50;;
54683;SDS011;40582;53.100;6.686;2022-12-28T12:41:20;4.85;;;4.10;;
54683;SDS011;40582;53.100;6.686;2022-12-28T12:55:14;4.97;;;4.55;;
54683;SDS011;40582;53.100;6.686;2022-12-28T12:58:01;4.68;;;4.28;;
54683;SDS011;40582;53.100;6.686;2022-12-28T13:05:58;5.10;;;4.50;;
54683;SDS011;40582;53.100;6.686;2022-12-28T13:08:35;4.90;;;4.40;;
54683;SDS011;40582;53.100;6.686;2022-12-28T13:11:07;5.30;;;4.05;;
54683;SDS011;40582;53.100;6.686;2022-12-28T13:13:34;4.82;;;4.32;;
54683;SDS011;40582;53.100;6.686;2022-12-28T13:16:03;4.85;;;4.00;;
54683;SDS011;40582;53.100;6.686;2022-12-28T13:18:32;5.82;;;4.32;;
54683;SDS011;40582;53.100;6.686;2022-12-28T13:20:59;4.90;;;4.38;;
54683;SDS011;40582;53.100;6.686;2022-12-28T13:23:27;5.13;;;4.05;;
54683;SDS011;40582;53.100;6.686;2022-12-28T13:25:56;4.82;;;4.15;;
54683;SDS011;40582;53.100;6.686;2022-12-28T13:31:03;5.72;;;4.25;;
54683;SDS011;40582;53.100;6.686;2022-12-28T13:33:57;4.72;;;4.32;;
54683;SDS011;40582;53.100;6.686;2022-12-28T13:36:26;5.10;;;4.60;;
54683;SDS011;40582;53.100;6.686;2022-12-28T13:39:00;5.00;;;4.60;;
54683;SDS011;40582;53.100;6.686;2022-12-28T13:41:28;7.55;;;4.35;;
54683;SDS011;40582;53.100;6.686;2022-12-28T13:46:40;12.80;;;5.18;;
54683;SDS011;40582;53.100;6.686;2022-12-28T13:49:09;6.97;;;5.05;;
54683;SDS011;40582;53.100;6.686;2022-12-28T13:51:36;5.75;;;4.72;;
54683;SDS011;40582;53.100;6.686;2022-12-28T13:54:03;7.22;;;4.18;;
54683;SDS011;40582;53.100;6.686;2022-12-28T13:56:30;5.03;;;3.97;;
54683;SDS011;40582;53.100;6.686;2022-12-28T13:58:58;5.80;;;4.10;;
54683;SDS011;40582;53.100;6.686;2022-12-28T14:01:28;5.07;;;3.67;;
54683;SDS011;40582;53.100;6.686;2022-12-28T14:03:59;4.35;;;3.85;;
54683;SDS011;40582;53.100;6.686;2022-12-28T14:06:28;5.82;;;3.47;;
54683;SDS011;40582;53.100;6.686;2022-12-28T14:08:54;4.43;;;3.50;;
54683;SDS011;40582;53.100;6.686;2022-12-28T14:11:20;7.57;;;3.40;;
54683;SDS011;40582;53.100;6.686;2022-12-28T14:13:47;5.90;;;3.22;;
54683;SDS011;40582;53.100;6.686;2022-12-28T14:16:13;8.25;;;3.28;;
54683;SDS011;40582;53.100;6.686;2022-12-28T14:18:39;8.60;;;3.67;;
54683;SDS011;40582;53.100;6.686;2022-12-28T14:21:06;9.63;;;3.70;;
54683;SDS011;40582;53.100;6.686;2022-12-28T14:23:35;4.38;;;3.05;;
54683;SDS011;40582;53.100;6.686;2022-12-28T14:26:06;6.22;;;3.40;;
54683;SDS011;40582;53.100;6.686;2022-12-28T14:28:44;7.00;;;3.55;;
54683;SDS011;40582;53.100;6.686;2022-12-28T14:31:13;5.68;;;3.90;;
54683;SDS011;40582;53.100;6.686;2022-12-28T14:33:50;9.30;;;4.53;;
54683;SDS011;40582;53.100;6.686;2022-12-28T14:36:29;6.13;;;4.13;;
54683;SDS011;40582;53.100;6.686;2022-12-28T14:41:56;10.10;;;4.47;;
54683;SDS011;40582;53.100;6.686;2022-12-28T14:44:32;8.05;;;4.40;;
54683;SDS011;40582;53.100;6.686;2022-12-28T14:47:02;9.23;;;5.10;;
54683;SDS011;40582;53.100;6.686;2022-12-28T14:54:43;12.32;;;5.15;;
54683;SDS011;40582;53.100;6.686;2022-12-28T14:57:29;11.57;;;5.22;;
54683;SDS011;40582;53.100;6.686;2022-12-28T15:02:44;14.55;;;5.68;;
54683;SDS011;40582;53.100;6.686;2022-12-28T15:08:05;12.35;;;5.50;;
54683;SDS011;40582;53.100;6.686;2022-12-28T15:10:32;7.85;;;5.13;;
54683;SDS011;40582;53.100;6.686;2022-12-28T15:13:01;14.38;;;5.82;;
54683;SDS011;40582;53.100;6.686;2022-12-28T15:15:26;15.20;;;7.28;;
54683;SDS011;40582;53.100;6.686;2022-12-28T15:17:52;16.05;;;5.78;;
54683;SDS011;40582;53.100;6.686;2022-12-28T15:20:18;12.88;;;7.35;;
54683;SDS011;40582;53.100;6.686;2022-12-28T15:22:46;9.52;;;5.85;;
54683;SDS011;40582;53.100;6.686;2022-12-28T15:25:12;17.08;;;6.32;;
54683;SDS011;40582;53.100;6.686;2022-12-28T15:27:38;14.32;;;7.00;;
54683;SDS011;40582;53.100;6.686;2022-12-28T15:30:03;14.02;;;7.30;;
54683;SDS011;40582;53.100;6.686;2022-12-28T15:32:30;15.68;;;6.80;;
54683;SDS011;40582;53.100;6.686;2022-12-28T15:34:55;17.17;;;8.13;;
54683;SDS011;40582;53.100;6.686;2022-12-28T15:37:21;15.82;;;7.13;;
54683;SDS011;40582;53.100;6.686;2022-12-28T15:39:47;24.73;;;7.55;;
54683;SDS011;40582;53.100;6.686;2022-12-28T15:42:12;15.60;;;7.72;;
54683;SDS011;40582;53.100;6.686;2022-12-28T15:44:38;15.40;;;8.25;;
54683;SDS011;40582;53.100;6.686;2022-12-28T15:47:04;17.27;;;7.95;;
54683;SDS011;40582;53.100;6.686;2022-12-28T15:49:30;21.05;;;8.18;;
54683;SDS011;40582;53.100;6.686;2022-12-28T15:51:56;17.48;;;6.72;;
54683;SDS011;40582;53.100;6.686;2022-12-28T15:54:21;15.45;;;6.43;;
54683;SDS011;40582;53.100;6.686;2022-12-28T15:56:54;18.48;;;8.15;;
54683;SDS011;40582;53.100;6.686;2022-12-28T15:59:20;14.13;;;6.97;;
54683;SDS011;40582;53.100;6.686;2022-12-28T16:01:46;19.50;;;7.90;;
54683;SDS011;40582;53.100;6.686;2022-12-28T16:04:12;16.83;;;7.05;;
54683;SDS011;40582;53.100;6.686;2022-12-28T16:06:38;19.52;;;7.75;;
54683;SDS011;40582;53.100;6.686;2022-12-28T16:09:04;17.98;;;7.72;;
54683;SDS011;40582;53.100;6.686;2022-12-28T16:11:30;25.92;;;8.20;;
54683;SDS011;40582;53.100;6.686;2022-12-28T16:14:02;15.35;;;7.05;;
54683;SDS011;40582;53.100;6.686;2022-12-28T16:16:30;23.25;;;7.93;;
54683;SDS011;40582;53.100;6.686;2022-12-28T16:18:59;13.05;;;6.40;;
54683;SDS011;40582;53.100;6.686;2022-12-28T16:21:26;17.95;;;7.00;;
54683;SDS011;40582;53.100;6.686;2022-12-28T16:23:53;16.55;;;7.78;;
54683;SDS011;40582;53.100;6.686;2022-12-28T16:26:19;19.25;;;9.18;;
54683;SDS011;40582;53.100;6.686;2022-12-28T16:28:45;17.55;;;7.88;;
54683;SDS011;40582;53.100;6.686;2022-12-28T16:31:25;18.85;;;7.55;;
54683;SDS011;40582;53.100;6.686;2022-12-28T16:33:55;21.17;;;8.30;;